sensor_id;sensor_type;location;lat;lon;timestamp;pressure;altitude;pressure_sealevel;temperature
12007;BMP180;6062;47.294;12.182;2022-11-04T00:01:59;79557.00;;;11.10
12007;BMP180;6062;47.294;12.182;2022-11-04T00:04:27;79543.00;;;11.20
12007;BMP180;6062;47.294;12.182;2022-11-04T00:06:55;79548.00;;;11.20
12007;BMP180;6062;47.294;12.182;2022-11-04T00:09:26;79550.00;;;11.20
12007;BMP180;6062;47.294;12.182;2022-11-04T00:11:52;79555.00;;;11.20
12007;BMP180;6062;47.294;12.182;2022-11-04T00:14:37;79555.00;;;11.20
12007;BMP180;6062;47.294;12.182;2022-11-04T00:17:04;79563.00;;;11.20
12007;BMP180;6062;47.294;12.182;2022-11-04T00:19:59;79561.00;;;11.20
12007;BMP180;6062;47.294;12.182;2022-11-04T00:22:47;79564.00;;;11.20
12007;BMP180;6062;47.294;12.182;2022-11-04T00:25:31;79563.00;;;11.20
12007;BMP180;6062;47.294;12.182;2022-11-04T00:28:17;79559.00;;;11.30
12007;BMP180;6062;47.294;12.182;2022-11-04T00:31:06;79556.00;;;11.30
12007;BMP180;6062;47.294;12.182;2022-11-04T00:33:52;79560.00;;;11.30
12007;BMP180;6062;47.294;12.182;2022-11-04T00:36:19;79555.00;;;11.30
12007;BMP180;6062;47.294;12.182;2022-11-04T00:38:45;79541.00;;;11.30
12007;BMP180;6062;47.294;12.182;2022-11-04T00:41:11;79543.00;;;11.30
12007;BMP180;6062;47.294;12.182;2022-11-04T00:43:53;79541.00;;;11.30
12007;BMP180;6062;47.294;12.182;2022-11-04T00:46:20;79539.00;;;11.30
12007;BMP180;6062;47.294;12.182;2022-11-04T00:48:46;79547.00;;;11.30
12007;BMP180;6062;47.294;12.182;2022-11-04T00:51:11;79542.00;;;11.30
12007;BMP180;6062;47.294;12.182;2022-11-04T00:53:37;79543.00;;;11.30
12007;BMP180;6062;47.294;12.182;2022-11-04T00:56:03;79548.00;;;11.30
12007;BMP180;6062;47.294;12.182;2022-11-04T00:58:28;79544.00;;;11.30
12007;BMP180;6062;47.294;12.182;2022-11-04T01:00:54;79531.00;;;11.30
12007;BMP180;6062;47.294;12.182;2022-11-04T01:03:20;79538.00;;;11.30
12007;BMP180;6062;47.294;12.182;2022-11-04T01:05:45;79531.00;;;11.30
12007;BMP180;6062;47.294;12.182;2022-11-04T01:08:11;79529.00;;;11.30
12007;BMP180;6062;47.294;12.182;2022-11-04T01:10:37;79525.00;;;11.30
12007;BMP180;6062;47.294;12.182;2022-11-04T01:13:10;79514.00;;;11.30
12007;BMP180;6062;47.294;12.182;2022-11-04T01:15:37;79530.00;;;11.30
12007;BMP180;6062;47.294;12.182;2022-11-04T01:18:04;79532.00;;;11.30
12007;BMP180;6062;47.294;12.182;2022-11-04T01:20:31;79527.00;;;11.30
12007;BMP180;6062;47.294;12.182;2022-11-04T01:22:56;79530.00;;;11.30
12007;BMP180;6062;47.294;12.182;2022-11-04T01:25:22;79532.00;;;11.30
12007;BMP180;6062;47.294;12.182;2022-11-04T01:27:48;79537.00;;;11.30
12007;BMP180;6062;47.294;12.182;2022-11-04T01:30:13;79532.00;;;11.20
12007;BMP180;6062;47.294;12.182;2022-11-04T01:32:39;79539.00;;;11.20
12007;BMP180;6062;47.294;12.182;2022-11-04T01:35:06;79528.00;;;11.10
12007;BMP180;6062;47.294;12.182;2022-11-04T01:37:32;79534.00;;;11.00
12007;BMP180;6062;47.294;12.182;2022-11-04T01:39:58;79530.00;;;10.90
12007;BMP180;6062;47.294;12.182;2022-11-04T01:42:24;79528.00;;;10.80
12007;BMP180;6062;47.294;12.182;2022-11-04T01:44:57;79526.00;;;10.70
12007;BMP180;6062;47.294;12.182;2022-11-04T01:48:08;79523.00;;;10.50
12007;BMP180;6062;47.294;12.182;2022-11-04T01:50:37;79524.00;;;10.40
12007;BMP180;6062;47.294;12.182;2022-11-04T01:53:13;79516.00;;;10.40
12007;BMP180;6062;47.294;12.182;2022-11-04T01:55:49;79510.00;;;10.30
12007;BMP180;6062;47.294;12.182;2022-11-04T01:58:19;79510.00;;;10.20
12007;BMP180;6062;47.294;12.182;2022-11-04T02:00:45;79529.00;;;10.20
12007;BMP180;6062;47.294;12.182;2022-11-04T02:03:19;79524.00;;;10.10
12007;BMP180;6062;47.294;12.182;2022-11-04T02:05:47;79513.00;;;10.10
12007;BMP180;6062;47.294;12.182;2022-11-04T02:08:15;79508.00;;;10.10
12007;BMP180;6062;47.294;12.182;2022-11-04T02:10:58;79516.00;;;10.00
12007;BMP180;6062;47.294;12.182;2022-11-04T02:13:26;79502.00;;;10.00
12007;BMP180;6062;47.294;12.182;2022-11-04T02:16:19;79499.00;;;10.00
12007;BMP180;6062;47.294;12.182;2022-11-04T02:19:29;79500.00;;;9.90
12007;BMP180;6062;47.294;12.182;2022-11-04T02:37:16;79489.00;;;9.50
12007;BMP180;6062;47.294;12.182;2022-11-04T02:39:57;79487.00;;;9.50
12007;BMP180;6062;47.294;12.182;2022-11-04T02:42:36;79487.00;;;9.40
12007;BMP180;6062;47.294;12.182;2022-11-04T02:48:07;79472.00;;;9.20
12007;BMP180;6062;47.294;12.182;2022-11-04T02:50:45;79471.00;;;9.20
12007;BMP180;6062;47.294;12.182;2022-11-04T02:53:23;79475.00;;;9.10
12007;BMP180;6062;47.294;12.182;2022-11-04T02:55:56;79474.00;;;9.10
12007;BMP180;6062;47.294;12.182;2022-11-04T02:58:53;79475.00;;;9.10
12007;BMP180;6062;47.294;12.182;2022-11-04T03:01:21;79462.00;;;9.00
12007;BMP180;6062;47.294;12.182;2022-11-04T03:03:59;79462.00;;;8.90
12007;BMP180;6062;47.294;12.182;2022-11-04T03:06:28;79474.00;;;8.80
12007;BMP180;6062;47.294;12.182;2022-11-04T03:08:57;79474.00;;;8.70
12007;BMP180;6062;47.294;12.182;2022-11-04T03:11:25;79468.00;;;8.60
12007;BMP180;6062;47.294;12.182;2022-11-04T03:14:02;79457.00;;;8.40
12007;BMP180;6062;47.294;12.182;2022-11-04T03:16:41;79465.00;;;8.20
12007;BMP180;6062;47.294;12.182;2022-11-04T03:19:51;79452.00;;;7.90
12007;BMP180;6062;47.294;12.182;2022-11-04T03:22:18;79441.00;;;7.60
12007;BMP180;6062;47.294;12.182;2022-11-04T03:24:47;79439.00;;;7.30
12007;BMP180;6062;47.294;12.182;2022-11-04T04:04:14;79419.00;;;5.50
12007;BMP180;6062;47.294;12.182;2022-11-04T04:06:45;79436.00;;;5.50
12007;BMP180;6062;47.294;12.182;2022-11-04T04:09:25;79430.00;;;5.60
12007;BMP180;6062;47.294;12.182;2022-11-04T04:12:04;79420.00;;;5.60
12007;BMP180;6062;47.294;12.182;2022-11-04T04:14:41;79422.00;;;5.50
12007;BMP180;6062;47.294;12.182;2022-11-04T04:17:33;79416.00;;;5.50
12007;BMP180;6062;47.294;12.182;2022-11-04T04:20:14;79425.00;;;5.40
12007;BMP180;6062;47.294;12.182;2022-11-04T04:23:06;79439.00;;;5.40
12007;BMP180;6062;47.294;12.182;2022-11-04T04:25:55;79438.00;;;5.40
12007;BMP180;6062;47.294;12.182;2022-11-04T04:28:40;79423.00;;;5.40
12007;BMP180;6062;47.294;12.182;2022-11-04T04:31:11;79416.00;;;5.40
12007;BMP180;6062;47.294;12.182;2022-11-04T04:33:59;79417.00;;;5.40
12007;BMP180;6062;47.294;12.182;2022-11-04T04:36:26;79413.00;;;5.40
12007;BMP180;6062;47.294;12.182;2022-11-04T04:38:52;79431.00;;;5.40
12007;BMP180;6062;47.294;12.182;2022-11-04T04:41:37;79430.00;;;5.40
12007;BMP180;6062;47.294;12.182;2022-11-04T04:44:26;79433.00;;;5.40
12007;BMP180;6062;47.294;12.182;2022-11-04T04:47:15;79447.00;;;5.40
12007;BMP180;6062;47.294;12.182;2022-11-04T04:50:00;79466.00;;;5.30
12007;BMP180;6062;47.294;12.182;2022-11-04T04:52:33;79460.00;;;5.30
12007;BMP180;6062;47.294;12.182;2022-11-04T04:55:01;79441.00;;;5.20
12007;BMP180;6062;47.294;12.182;2022-11-04T04:57:27;79454.00;;;5.20
12007;BMP180;6062;47.294;12.182;2022-11-04T04:59:53;79449.00;;;5.10
12007;BMP180;6062;47.294;12.182;2022-11-04T05:02:18;79438.00;;;5.10
12007;BMP180;6062;47.294;12.182;2022-11-04T05:04:44;79439.00;;;5.10
12007;BMP180;6062;47.294;12.182;2022-11-04T05:07:10;79410.00;;;5.00
12007;BMP180;6062;47.294;12.182;2022-11-04T05:09:36;79385.00;;;5.00
12007;BMP180;6062;47.294;12.182;2022-11-04T05:12:02;79388.00;;;4.90
12007;BMP180;6062;47.294;12.182;2022-11-04T05:14:28;79409.00;;;4.90
12007;BMP180;6062;47.294;12.182;2022-11-04T05:16:54;79413.00;;;4.80
12007;BMP180;6062;47.294;12.182;2022-11-04T05:19:20;79451.00;;;4.80
12007;BMP180;6062;47.294;12.182;2022-11-04T05:21:45;79445.00;;;4.70
12007;BMP180;6062;47.294;12.182;2022-11-04T05:24:11;79447.00;;;4.70
12007;BMP180;6062;47.294;12.182;2022-11-04T05:26:37;79438.00;;;4.70
12007;BMP180;6062;47.294;12.182;2022-11-04T05:29:02;79441.00;;;4.70
12007;BMP180;6062;47.294;12.182;2022-11-04T05:31:28;79438.00;;;4.70
12007;BMP180;6062;47.294;12.182;2022-11-04T05:33:55;79434.00;;;4.70
12007;BMP180;6062;47.294;12.182;2022-11-04T05:36:21;79434.00;;;4.70
12007;BMP180;6062;47.294;12.182;2022-11-04T05:38:52;79426.00;;;4.70
12007;BMP180;6062;47.294;12.182;2022-11-04T05:41:20;79419.00;;;4.60
12007;BMP180;6062;47.294;12.182;2022-11-04T05:43:58;79409.00;;;4.60
12007;BMP180;6062;47.294;12.182;2022-11-04T05:46:25;79398.00;;;4.60
12007;BMP180;6062;47.294;12.182;2022-11-04T05:48:51;79417.00;;;4.50
12007;BMP180;6062;47.294;12.182;2022-11-04T05:51:21;79418.00;;;4.50
12007;BMP180;6062;47.294;12.182;2022-11-04T05:53:47;79422.00;;;4.50
12007;BMP180;6062;47.294;12.182;2022-11-04T05:56:12;79409.00;;;4.40
12007;BMP180;6062;47.294;12.182;2022-11-04T05:58:38;79427.00;;;4.40
12007;BMP180;6062;47.294;12.182;2022-11-04T06:01:33;79425.00;;;4.40
12007;BMP180;6062;47.294;12.182;2022-11-04T06:04:00;79454.00;;;4.40
12007;BMP180;6062;47.294;12.182;2022-11-04T06:06:31;79452.00;;;4.40
12007;BMP180;6062;47.294;12.182;2022-11-04T06:08:58;79451.00;;;4.40
12007;BMP180;6062;47.294;12.182;2022-11-04T06:11:26;79426.00;;;4.40
12007;BMP180;6062;47.294;12.182;2022-11-04T06:13:54;79404.00;;;4.40
12007;BMP180;6062;47.294;12.182;2022-11-04T06:16:20;79394.00;;;4.50
12007;BMP180;6062;47.294;12.182;2022-11-04T06:18:46;79377.00;;;4.40
12007;BMP180;6062;47.294;12.182;2022-11-04T06:23:41;79411.00;;;4.40
12007;BMP180;6062;47.294;12.182;2022-11-04T06:26:08;79410.00;;;4.40
12007;BMP180;6062;47.294;12.182;2022-11-04T06:28:34;79409.00;;;4.40
12007;BMP180;6062;47.294;12.182;2022-11-04T06:31:02;79392.00;;;4.30
12007;BMP180;6062;47.294;12.182;2022-11-04T06:33:29;79413.00;;;4.30
12007;BMP180;6062;47.294;12.182;2022-11-04T06:36:00;79422.00;;;4.30
12007;BMP180;6062;47.294;12.182;2022-11-04T06:38:31;79434.00;;;4.40
12007;BMP180;6062;47.294;12.182;2022-11-04T06:40:57;79424.00;;;4.30
12007;BMP180;6062;47.294;12.182;2022-11-04T06:43:23;79422.00;;;4.40
12007;BMP180;6062;47.294;12.182;2022-11-04T06:45:57;79426.00;;;4.40
12007;BMP180;6062;47.294;12.182;2022-11-04T06:48:24;79437.00;;;4.40
12007;BMP180;6062;47.294;12.182;2022-11-04T06:50:50;79443.00;;;4.40
12007;BMP180;6062;47.294;12.182;2022-11-04T06:53:16;79441.00;;;4.30
12007;BMP180;6062;47.294;12.182;2022-11-04T06:55:42;79451.00;;;4.20
12007;BMP180;6062;47.294;12.182;2022-11-04T06:58:08;79453.00;;;4.00
12007;BMP180;6062;47.294;12.182;2022-11-04T07:00:34;79452.00;;;4.00
12007;BMP180;6062;47.294;12.182;2022-11-04T07:03:00;79458.00;;;3.90
12007;BMP180;6062;47.294;12.182;2022-11-04T07:05:25;79475.00;;;4.00
12007;BMP180;6062;47.294;12.182;2022-11-04T07:07:51;79501.00;;;4.00
12007;BMP180;6062;47.294;12.182;2022-11-04T07:10:17;79512.00;;;4.10
12007;BMP180;6062;47.294;12.182;2022-11-04T07:12:43;79493.00;;;4.20
12007;BMP180;6062;47.294;12.182;2022-11-04T07:15:09;79448.00;;;4.20
12007;BMP180;6062;47.294;12.182;2022-11-04T07:17:36;79429.00;;;4.30
12007;BMP180;6062;47.294;12.182;2022-11-04T07:20:03;79447.00;;;4.40
12007;BMP180;6062;47.294;12.182;2022-11-04T07:22:30;79470.00;;;4.30
12007;BMP180;6062;47.294;12.182;2022-11-04T07:24:56;79470.00;;;4.30
12007;BMP180;6062;47.294;12.182;2022-11-04T07:27:22;79463.00;;;4.30
12007;BMP180;6062;47.294;12.182;2022-11-04T07:29:47;79455.00;;;4.30
12007;BMP180;6062;47.294;12.182;2022-11-04T07:32:13;79441.00;;;4.30
12007;BMP180;6062;47.294;12.182;2022-11-04T07:34:39;79444.00;;;4.40
12007;BMP180;6062;47.294;12.182;2022-11-04T07:37:04;79435.00;;;4.40
12007;BMP180;6062;47.294;12.182;2022-11-04T07:39:30;79417.00;;;4.50
12007;BMP180;6062;47.294;12.182;2022-11-04T07:41:56;79418.00;;;4.40
12007;BMP180;6062;47.294;12.182;2022-11-04T07:44:21;79412.00;;;4.40
12007;BMP180;6062;47.294;12.182;2022-11-04T07:46:48;79388.00;;;4.30
12007;BMP180;6062;47.294;12.182;2022-11-04T07:49:14;79407.00;;;4.30
12007;BMP180;6062;47.294;12.182;2022-11-04T07:51:40;79413.00;;;4.20
12007;BMP180;6062;47.294;12.182;2022-11-04T07:54:05;79426.00;;;4.30
12007;BMP180;6062;47.294;12.182;2022-11-04T07:56:31;79407.00;;;4.30
12007;BMP180;6062;47.294;12.182;2022-11-04T07:58:57;79390.00;;;4.40
12007;BMP180;6062;47.294;12.182;2022-11-04T08:01:23;79388.00;;;4.50
12007;BMP180;6062;47.294;12.182;2022-11-04T08:03:50;79389.00;;;4.60
12007;BMP180;6062;47.294;12.182;2022-11-04T08:06:18;79360.00;;;4.60
12007;BMP180;6062;47.294;12.182;2022-11-04T08:08:45;79361.00;;;4.70
12007;BMP180;6062;47.294;12.182;2022-11-04T08:11:17;79364.00;;;4.70
12007;BMP180;6062;47.294;12.182;2022-11-04T08:13:44;79373.00;;;4.70
12007;BMP180;6062;47.294;12.182;2022-11-04T08:16:15;79374.00;;;4.70
12007;BMP180;6062;47.294;12.182;2022-11-04T08:18:41;79360.00;;;4.70
12007;BMP180;6062;47.294;12.182;2022-11-04T08:21:09;79362.00;;;4.70
12007;BMP180;6062;47.294;12.182;2022-11-04T08:23:35;79353.00;;;4.70
12007;BMP180;6062;47.294;12.182;2022-11-04T08:26:07;79352.00;;;4.90
12007;BMP180;6062;47.294;12.182;2022-11-04T08:28:33;79372.00;;;5.00
12007;BMP180;6062;47.294;12.182;2022-11-04T08:31:04;79358.00;;;5.10
12007;BMP180;6062;47.294;12.182;2022-11-04T08:33:32;79357.00;;;5.30
12007;BMP180;6062;47.294;12.182;2022-11-04T08:36:09;79346.00;;;5.40
12007;BMP180;6062;47.294;12.182;2022-11-04T08:38:36;79337.00;;;5.50
12007;BMP180;6062;47.294;12.182;2022-11-04T08:41:05;79347.00;;;5.60
12007;BMP180;6062;47.294;12.182;2022-11-04T08:43:31;79363.00;;;5.70
12007;BMP180;6062;47.294;12.182;2022-11-04T08:45:59;79358.00;;;5.70
12007;BMP180;6062;47.294;12.182;2022-11-04T08:48:25;79349.00;;;5.70
12007;BMP180;6062;47.294;12.182;2022-11-04T08:50:55;79351.00;;;5.80
12007;BMP180;6062;47.294;12.182;2022-11-04T08:53:24;79344.00;;;5.80
12007;BMP180;6062;47.294;12.182;2022-11-04T08:55:50;79336.00;;;5.80
12007;BMP180;6062;47.294;12.182;2022-11-04T08:58:16;79330.00;;;5.80
12007;BMP180;6062;47.294;12.182;2022-11-04T09:00:42;79344.00;;;5.70
12007;BMP180;6062;47.294;12.182;2022-11-04T09:03:08;79351.00;;;5.70
12007;BMP180;6062;47.294;12.182;2022-11-04T09:05:36;79321.00;;;5.60
12007;BMP180;6062;47.294;12.182;2022-11-04T09:08:13;79309.00;;;5.60
12007;BMP180;6062;47.294;12.182;2022-11-04T09:10:46;79297.00;;;5.60
12007;BMP180;6062;47.294;12.182;2022-11-04T09:13:14;79284.00;;;5.60
12007;BMP180;6062;47.294;12.182;2022-11-04T09:15:41;79298.00;;;5.50
12007;BMP180;6062;47.294;12.182;2022-11-04T09:18:07;79324.00;;;5.40
12007;BMP180;6062;47.294;12.182;2022-11-04T09:20:34;79318.00;;;5.30
12007;BMP180;6062;47.294;12.182;2022-11-04T09:23:03;79280.00;;;5.20
12007;BMP180;6062;47.294;12.182;2022-11-04T09:25:29;79280.00;;;5.20
12007;BMP180;6062;47.294;12.182;2022-11-04T09:27:57;79290.00;;;5.20
12007;BMP180;6062;47.294;12.182;2022-11-04T09:30:24;79323.00;;;5.20
12007;BMP180;6062;47.294;12.182;2022-11-04T09:32:50;79325.00;;;5.10
12007;BMP180;6062;47.294;12.182;2022-11-04T09:35:16;79309.00;;;5.10
12007;BMP180;6062;47.294;12.182;2022-11-04T09:37:43;79307.00;;;5.10
12007;BMP180;6062;47.294;12.182;2022-11-04T09:40:16;79321.00;;;5.10
12007;BMP180;6062;47.294;12.182;2022-11-04T09:43:18;79302.00;;;5.20
12007;BMP180;6062;47.294;12.182;2022-11-04T09:45:47;79291.00;;;5.10
12007;BMP180;6062;47.294;12.182;2022-11-04T09:48:42;79295.00;;;5.10
12007;BMP180;6062;47.294;12.182;2022-11-04T09:51:10;79290.00;;;5.10
12007;BMP180;6062;47.294;12.182;2022-11-04T09:53:44;79282.00;;;5.10
12007;BMP180;6062;47.294;12.182;2022-11-04T09:56:47;79271.00;;;5.10
12007;BMP180;6062;47.294;12.182;2022-11-04T09:59:24;79273.00;;;5.10
12007;BMP180;6062;47.294;12.182;2022-11-04T10:10:59;79288.00;;;5.10
12007;BMP180;6062;47.294;12.182;2022-11-04T10:14:03;79274.00;;;5.10
12007;BMP180;6062;47.294;12.182;2022-11-04T10:23:00;79253.00;;;5.30
12007;BMP180;6062;47.294;12.182;2022-11-04T10:25:46;79246.00;;;5.30
12007;BMP180;6062;47.294;12.182;2022-11-04T10:28:20;79254.00;;;5.20
12007;BMP180;6062;47.294;12.182;2022-11-04T10:30:49;79266.00;;;5.20
12007;BMP180;6062;47.294;12.182;2022-11-04T10:33:44;79265.00;;;5.10
12007;BMP180;6062;47.294;12.182;2022-11-04T10:36:11;79254.00;;;5.10
12007;BMP180;6062;47.294;12.182;2022-11-04T10:38:49;79269.00;;;5.00
12007;BMP180;6062;47.294;12.182;2022-11-04T10:41:37;79280.00;;;5.00
12007;BMP180;6062;47.294;12.182;2022-11-04T10:44:21;79281.00;;;4.90
12007;BMP180;6062;47.294;12.182;2022-11-04T10:47:21;79296.00;;;4.90
12007;BMP180;6062;47.294;12.182;2022-11-04T10:50:23;79303.00;;;4.80
12007;BMP180;6062;47.294;12.182;2022-11-04T10:52:54;79300.00;;;4.80
12007;BMP180;6062;47.294;12.182;2022-11-04T10:55:40;79293.00;;;4.80
12007;BMP180;6062;47.294;12.182;2022-11-04T10:58:23;79303.00;;;4.90
12007;BMP180;6062;47.294;12.182;2022-11-04T11:00:50;79327.00;;;4.90
12007;BMP180;6062;47.294;12.182;2022-11-04T11:03:32;79334.00;;;5.00
12007;BMP180;6062;47.294;12.182;2022-11-04T11:06:21;79284.00;;;5.00
12007;BMP180;6062;47.294;12.182;2022-11-04T11:08:50;79282.00;;;5.00
12007;BMP180;6062;47.294;12.182;2022-11-04T11:11:34;79284.00;;;5.10
12007;BMP180;6062;47.294;12.182;2022-11-04T11:14:00;79272.00;;;5.20
12007;BMP180;6062;47.294;12.182;2022-11-04T11:16:27;79267.00;;;5.20
12007;BMP180;6062;47.294;12.182;2022-11-04T11:19:18;79282.00;;;5.20
12007;BMP180;6062;47.294;12.182;2022-11-04T11:21:53;79288.00;;;5.30
12007;BMP180;6062;47.294;12.182;2022-11-04T11:24:28;79282.00;;;5.30
12007;BMP180;6062;47.294;12.182;2022-11-04T11:26:57;79282.00;;;5.40
12007;BMP180;6062;47.294;12.182;2022-11-04T11:29:31;79270.00;;;5.50
12007;BMP180;6062;47.294;12.182;2022-11-04T11:32:20;79257.00;;;5.50
12007;BMP180;6062;47.294;12.182;2022-11-04T11:34:49;79248.00;;;5.60
12007;BMP180;6062;47.294;12.182;2022-11-04T11:37:23;79276.00;;;5.50
12007;BMP180;6062;47.294;12.182;2022-11-04T11:39:50;79275.00;;;5.40
12007;BMP180;6062;47.294;12.182;2022-11-04T11:42:17;79285.00;;;5.30
12007;BMP180;6062;47.294;12.182;2022-11-04T11:44:55;79283.00;;;5.20
12007;BMP180;6062;47.294;12.182;2022-11-04T11:50:10;79295.00;;;5.30
12007;BMP180;6062;47.294;12.182;2022-11-04T11:52:40;79294.00;;;5.30
12007;BMP180;6062;47.294;12.182;2022-11-04T11:55:33;79310.00;;;5.50
12007;BMP180;6062;47.294;12.182;2022-11-04T12:00:53;79313.00;;;5.70
12007;BMP180;6062;47.294;12.182;2022-11-04T12:03:33;79322.00;;;5.80
12007;BMP180;6062;47.294;12.182;2022-11-04T12:06:43;79326.00;;;5.80
12007;BMP180;6062;47.294;12.182;2022-11-04T12:12:11;79303.00;;;5.70
12007;BMP180;6062;47.294;12.182;2022-11-04T12:21:09;79307.00;;;5.30
12007;BMP180;6062;47.294;12.182;2022-11-04T12:26:53;79299.00;;;5.00
12007;BMP180;6062;47.294;12.182;2022-11-04T12:29:44;79311.00;;;4.80
12007;BMP180;6062;47.294;12.182;2022-11-04T12:32:28;79299.00;;;4.60
12007;BMP180;6062;47.294;12.182;2022-11-04T12:37:45;79310.00;;;4.40
12007;BMP180;6062;47.294;12.182;2022-11-04T12:43:18;79306.00;;;4.60
12007;BMP180;6062;47.294;12.182;2022-11-04T12:46:11;79309.00;;;4.80
12007;BMP180;6062;47.294;12.182;2022-11-04T12:52:53;79310.00;;;5.40
12007;BMP180;6062;47.294;12.182;2022-11-04T13:00:58;79309.00;;;5.90
12007;BMP180;6062;47.294;12.182;2022-11-04T13:03:38;79330.00;;;6.00
12007;BMP180;6062;47.294;12.182;2022-11-04T13:06:27;79320.00;;;6.00
12007;BMP180;6062;47.294;12.182;2022-11-04T13:09:02;79329.00;;;5.90
12007;BMP180;6062;47.294;12.182;2022-11-04T13:12:08;79334.00;;;5.70
12007;BMP180;6062;47.294;12.182;2022-11-04T13:17:23;79324.00;;;5.60
12007;BMP180;6062;47.294;12.182;2022-11-04T13:19:59;79329.00;;;5.70
12007;BMP180;6062;47.294;12.182;2022-11-04T13:22:31;79334.00;;;5.80
12007;BMP180;6062;47.294;12.182;2022-11-04T13:27:40;79337.00;;;5.90
12007;BMP180;6062;47.294;12.182;2022-11-04T13:35:53;79334.00;;;5.70
12007;BMP180;6062;47.294;12.182;2022-11-04T13:38:32;79336.00;;;5.70
12007;BMP180;6062;47.294;12.182;2022-11-04T13:43:56;79344.00;;;5.70
12007;BMP180;6062;47.294;12.182;2022-11-04T13:48:55;79346.00;;;5.60
12007;BMP180;6062;47.294;12.182;2022-11-04T13:51:23;79345.00;;;5.60
12007;BMP180;6062;47.294;12.182;2022-11-04T13:53:58;79350.00;;;5.60
12007;BMP180;6062;47.294;12.182;2022-11-04T13:56:36;79353.00;;;5.60
12007;BMP180;6062;47.294;12.182;2022-11-04T13:59:27;79359.00;;;5.60
12007;BMP180;6062;47.294;12.182;2022-11-04T14:04:42;79365.00;;;5.40
12007;BMP180;6062;47.294;12.182;2022-11-04T14:07:11;79357.00;;;5.30
12007;BMP180;6062;47.294;12.182;2022-11-04T14:14:42;79370.00;;;5.40
12007;BMP180;6062;47.294;12.182;2022-11-04T14:20:23;79371.00;;;5.50
12007;BMP180;6062;47.294;12.182;2022-11-04T14:22:54;79379.00;;;5.50
12007;BMP180;6062;47.294;12.182;2022-11-04T14:25:40;79378.00;;;5.60
12007;BMP180;6062;47.294;12.182;2022-11-04T14:31:13;79389.00;;;5.60
12007;BMP180;6062;47.294;12.182;2022-11-04T14:33:57;79393.00;;;5.60
12007;BMP180;6062;47.294;12.182;2022-11-04T14:41:57;79394.00;;;5.50
12007;BMP180;6062;47.294;12.182;2022-11-04T14:44:31;79400.00;;;5.50
12007;BMP180;6062;47.294;12.182;2022-11-04T14:47:17;79399.00;;;5.50
12007;BMP180;6062;47.294;12.182;2022-11-04T14:49:47;79395.00;;;5.60
12007;BMP180;6062;47.294;12.182;2022-11-04T14:54:54;79395.00;;;5.60
12007;BMP180;6062;47.294;12.182;2022-11-04T14:57:21;79390.00;;;5.50
12007;BMP180;6062;47.294;12.182;2022-11-04T14:59:47;79398.00;;;5.40
12007;BMP180;6062;47.294;12.182;2022-11-04T15:02:19;79390.00;;;5.30
12007;BMP180;6062;47.294;12.182;2022-11-04T15:04:58;79391.00;;;5.30
12007;BMP180;6062;47.294;12.182;2022-11-04T15:07:37;79399.00;;;5.20
12007;BMP180;6062;47.294;12.182;2022-11-04T15:10:22;79398.00;;;5.10
12007;BMP180;6062;47.294;12.182;2022-11-04T15:12:49;79399.00;;;5.00
12007;BMP180;6062;47.294;12.182;2022-11-04T15:15:36;79398.00;;;5.00
12007;BMP180;6062;47.294;12.182;2022-11-04T15:18:12;79409.00;;;5.00
12007;BMP180;6062;47.294;12.182;2022-11-04T15:20:58;79410.00;;;4.90
12007;BMP180;6062;47.294;12.182;2022-11-04T15:23:39;79416.00;;;4.90
12007;BMP180;6062;47.294;12.182;2022-11-04T15:26:06;79419.00;;;4.80
12007;BMP180;6062;47.294;12.182;2022-11-04T15:28:38;79416.00;;;4.80
12007;BMP180;6062;47.294;12.182;2022-11-04T15:33:49;79427.00;;;4.70
12007;BMP180;6062;47.294;12.182;2022-11-04T15:36:26;79428.00;;;4.70
12007;BMP180;6062;47.294;12.182;2022-11-04T15:39:04;79427.00;;;4.60
12007;BMP180;6062;47.294;12.182;2022-11-04T15:41:32;79416.00;;;4.50
12007;BMP180;6062;47.294;12.182;2022-11-04T15:44:24;79416.00;;;4.50
12007;BMP180;6062;47.294;12.182;2022-11-04T15:47:00;79422.00;;;4.40
12007;BMP180;6062;47.294;12.182;2022-11-04T15:49:30;79419.00;;;4.30
12007;BMP180;6062;47.294;12.182;2022-11-04T15:52:05;79419.00;;;4.30
12007;BMP180;6062;47.294;12.182;2022-11-04T15:54:37;79424.00;;;4.20
12007;BMP180;6062;47.294;12.182;2022-11-04T16:00:07;79426.00;;;4.10
12007;BMP180;6062;47.294;12.182;2022-11-04T16:02:43;79425.00;;;4.00
12007;BMP180;6062;47.294;12.182;2022-11-04T16:07:41;79432.00;;;3.90
12007;BMP180;6062;47.294;12.182;2022-11-04T16:10:33;79428.00;;;3.90
12007;BMP180;6062;47.294;12.182;2022-11-04T16:13:21;79422.00;;;3.80
12007;BMP180;6062;47.294;12.182;2022-11-04T16:16:04;79429.00;;;3.80
12007;BMP180;6062;47.294;12.182;2022-11-04T16:21:33;79434.00;;;3.70
12007;BMP180;6062;47.294;12.182;2022-11-04T16:24:19;79446.00;;;3.70
12007;BMP180;6062;47.294;12.182;2022-11-04T16:26:47;79438.00;;;3.60
12007;BMP180;6062;47.294;12.182;2022-11-04T16:29:25;79439.00;;;3.60
12007;BMP180;6062;47.294;12.182;2022-11-04T16:32:22;79452.00;;;3.60
12007;BMP180;6062;47.294;12.182;2022-11-04T16:34:51;79450.00;;;3.50
12007;BMP180;6062;47.294;12.182;2022-11-04T16:37:17;79446.00;;;3.50
12007;BMP180;6062;47.294;12.182;2022-11-04T16:39:44;79460.00;;;3.40
12007;BMP180;6062;47.294;12.182;2022-11-04T16:42:13;79456.00;;;3.40
12007;BMP180;6062;47.294;12.182;2022-11-04T16:44:39;79454.00;;;3.40
12007;BMP180;6062;47.294;12.182;2022-11-04T16:47:08;79456.00;;;3.40
12007;BMP180;6062;47.294;12.182;2022-11-04T16:49:34;79457.00;;;3.40
12007;BMP180;6062;47.294;12.182;2022-11-04T16:52:02;79441.00;;;3.40
12007;BMP180;6062;47.294;12.182;2022-11-04T16:54:29;79447.00;;;3.30
12007;BMP180;6062;47.294;12.182;2022-11-04T16:56:55;79443.00;;;3.30
12007;BMP180;6062;47.294;12.182;2022-11-04T16:59:21;79449.00;;;3.30
12007;BMP180;6062;47.294;12.182;2022-11-04T17:01:48;79443.00;;;3.30
12007;BMP180;6062;47.294;12.182;2022-11-04T17:04:13;79448.00;;;3.20
12007;BMP180;6062;47.294;12.182;2022-11-04T17:06:40;79451.00;;;3.30
12007;BMP180;6062;47.294;12.182;2022-11-04T17:09:19;79445.00;;;3.20
12007;BMP180;6062;47.294;12.182;2022-11-04T17:11:46;79453.00;;;3.20
12007;BMP180;6062;47.294;12.182;2022-11-04T17:14:12;79453.00;;;3.20
12007;BMP180;6062;47.294;12.182;2022-11-04T17:16:38;79455.00;;;3.20
12007;BMP180;6062;47.294;12.182;2022-11-04T17:19:04;79468.00;;;3.30
12007;BMP180;6062;47.294;12.182;2022-11-04T17:21:30;79474.00;;;3.30
12007;BMP180;6062;47.294;12.182;2022-11-04T17:23:55;79473.00;;;3.30
12007;BMP180;6062;47.294;12.182;2022-11-04T17:26:21;79477.00;;;3.30
12007;BMP180;6062;47.294;12.182;2022-11-04T17:28:47;79483.00;;;3.40